createdAt,value
2018-03-28T00:00:52.162Z,24.27
2018-03-28T00:03:19.521Z,24.63
2018-03-28T00:05:46.882Z,21.63
2018-03-28T00:08:14.281Z,20.53
2018-03-28T00:10:41.641Z,23.47
2018-03-28T00:13:09.016Z,22.57
2018-03-28T00:15:36.422Z,22.97
2018-03-28T00:18:03.785Z,24.57
2018-03-28T00:20:31.143Z,20.03
2018-03-28T00:22:58.530Z,24.90
2018-03-28T00:25:25.917Z,24.27
2018-03-28T00:27:53.279Z,21.60
2018-03-28T00:30:20.689Z,21.00
2018-03-28T00:32:48.053Z,19.73
2018-03-28T00:35:15.428Z,23.27
2018-03-28T00:37:42.822Z,25.73
2018-03-28T00:40:10.176Z,25.87
2018-03-28T00:42:37.535Z,23.30
2018-03-28T00:45:04.933Z,21.00
2018-03-28T00:47:32.290Z,25.17
2018-03-28T00:49:59.649Z,25.03
2018-03-28T00:52:27.049Z,25.03
2018-03-28T00:54:54.442Z,22.20
2018-03-28T00:57:21.801Z,23.67
2018-03-28T00:59:49.236Z,24.80
2018-03-28T01:02:16.603Z,25.10
2018-03-28T01:04:43.957Z,23.37
2018-03-28T01:07:11.360Z,24.07
2018-03-28T01:09:38.730Z,23.97
2018-03-28T01:12:06.097Z,25.93
2018-03-28T01:14:33.485Z,25.07
2018-03-28T01:17:00.855Z,27.73
2018-03-28T01:19:28.213Z,24.70
2018-03-28T01:21:55.606Z,22.80
2018-03-28T01:24:22.991Z,28.20
2018-03-28T01:26:50.346Z,24.97
2018-03-28T01:29:17.746Z,25.27
2018-03-28T01:31:45.106Z,26.53
2018-03-28T01:34:12.474Z,26.87
2018-03-28T01:36:39.886Z,28.10
2018-03-28T01:39:07.926Z,31.40
2018-03-28T01:41:35.303Z,29.60
2018-03-28T01:44:02.797Z,24.23
2018-03-28T01:46:30.210Z,29.07
2018-03-28T01:48:57.609Z,33.50
2018-03-28T01:51:24.987Z,27.43
2018-03-28T01:53:52.347Z,27.70
2018-03-28T01:56:19.759Z,30.93
2018-03-28T01:58:47.117Z,30.80
2018-03-28T02:01:14.502Z,30.53
2018-03-28T02:03:41.880Z,24.57
2018-03-28T02:06:09.250Z,30.60
2018-03-28T02:08:36.659Z,27.53
2018-03-28T02:11:04.014Z,28.93
2018-03-28T02:13:31.378Z,34.30
2018-03-28T02:15:58.781Z,32.00
2018-03-28T02:18:26.173Z,34.50
2018-03-28T02:20:53.564Z,31.33
2018-03-28T02:23:20.929Z,30.93
2018-03-28T02:25:48.289Z,29.93
2018-03-28T02:28:15.702Z,29.93
2018-03-28T02:30:43.063Z,33.93
2018-03-28T02:33:10.479Z,31.40
2018-03-28T02:35:37.867Z,32.20
2018-03-28T02:38:05.227Z,31.13
2018-03-28T02:40:32.590Z,37.37
2018-03-28T02:42:59.972Z,32.90
2018-03-28T02:45:27.329Z,32.30
2018-03-28T02:47:54.739Z,29.63
2018-03-28T02:50:22.104Z,33.27
2018-03-28T02:52:49.526Z,35.07
2018-03-28T02:55:16.943Z,30.50
2018-03-28T02:57:44.309Z,40.23
2018-03-28T03:00:11.705Z,38.53
2018-03-28T03:02:39.058Z,36.23
2018-03-28T03:05:06.429Z,38.20
2018-03-28T03:07:33.842Z,39.27
2018-03-28T03:10:01.203Z,39.40
2018-03-28T03:12:28.558Z,38.17
2018-03-28T03:14:55.973Z,34.77
2018-03-28T03:17:23.351Z,38.20
2018-03-28T03:19:50.721Z,47.10
2018-03-28T03:22:18.131Z,42.47
2018-03-28T03:24:45.494Z,40.90
2018-03-28T03:27:12.848Z,41.23
2018-03-28T03:29:40.237Z,39.83
2018-03-28T03:32:07.598Z,46.60
2018-03-28T03:34:34.962Z,39.87
2018-03-28T03:37:02.428Z,41.73
2018-03-28T03:39:29.750Z,45.17
2018-03-28T03:41:57.129Z,42.77
2018-03-28T03:44:24.527Z,40.80
2018-03-28T03:46:51.901Z,45.23
2018-03-28T03:49:19.262Z,41.70
2018-03-28T03:51:46.654Z,44.90
2018-03-28T03:54:14.021Z,48.20
2018-03-28T03:56:41.435Z,46.07
2018-03-28T03:59:08.793Z,44.27
2018-03-28T04:01:36.153Z,47.23
2018-03-28T04:04:03.571Z,49.40
2018-03-28T04:06:30.939Z,46.90
2018-03-28T04:08:58.327Z,46.33
2018-03-28T04:11:25.738Z,46.57
2018-03-28T04:13:53.097Z,49.40
2018-03-28T04:16:20.469Z,50.23
2018-03-28T04:18:47.856Z,50.30
2018-03-28T04:21:15.220Z,57.67
2018-03-28T04:23:42.578Z,57.70
2018-03-28T04:26:09.985Z,55.70
2018-03-28T04:28:37.393Z,54.57
2018-03-28T04:31:04.761Z,50.27
2018-03-28T04:33:32.142Z,58.03
2018-03-28T04:35:59.511Z,50.27
2018-03-28T04:38:26.902Z,52.37
2018-03-28T04:40:54.370Z,58.23
2018-03-28T04:43:21.754Z,56.40
2018-03-28T04:45:49.126Z,61.23
2018-03-28T04:48:16.489Z,61.70
2018-03-28T04:50:43.886Z,57.07
2018-03-28T04:53:11.237Z,52.53
2018-03-28T04:55:38.593Z,60.63
2018-03-28T04:58:05.969Z,55.17
2018-03-28T05:00:33.336Z,60.07
2018-03-28T05:03:00.745Z,53.50
2018-03-28T05:05:28.106Z,59.03
2018-03-28T05:07:55.465Z,56.27
2018-03-28T05:10:22.868Z,62.03
2018-03-28T05:12:50.245Z,58.47
2018-03-28T05:15:17.658Z,58.03
2018-03-28T05:17:45.030Z,64.20
2018-03-28T05:20:12.393Z,57.20
2018-03-28T05:22:39.843Z,51.83
2018-03-28T05:25:07.181Z,61.27
2018-03-28T05:27:34.533Z,63.83
2018-03-28T05:30:01.970Z,60.77
2018-03-28T05:32:29.341Z,61.53
2018-03-28T05:34:56.740Z,62.50
2018-03-28T05:37:24.126Z,60.57
2018-03-28T05:39:51.533Z,62.40
2018-03-28T05:42:18.917Z,61.53
2018-03-28T05:44:46.418Z,64.70
2018-03-28T05:47:13.792Z,65.57
2018-03-28T05:49:41.154Z,64.40
2018-03-28T05:52:08.553Z,66.07
2018-03-28T05:54:35.913Z,61.07
2018-03-28T05:57:03.306Z,65.50
2018-03-28T05:59:30.710Z,75.37
2018-03-28T06:01:58.093Z,70.10
2018-03-28T06:04:25.526Z,73.90
2018-03-28T06:06:52.901Z,68.93
2018-03-28T06:09:20.270Z,75.93
2018-03-28T06:11:47.669Z,77.03
2018-03-28T06:14:15.033Z,74.07
2018-03-28T06:16:42.398Z,84.87
2018-03-28T06:19:09.815Z,87.57
2018-03-28T06:21:37.177Z,74.50
2018-03-28T06:24:04.588Z,74.10
2018-03-28T06:26:31.994Z,91.63
2018-03-28T06:28:59.363Z,80.70
2018-03-28T06:31:26.731Z,77.73
2018-03-28T06:33:54.133Z,84.70
2018-03-28T06:36:21.586Z,80.67
2018-03-28T06:38:49.307Z,85.23
2018-03-28T06:41:17.309Z,84.87
2018-03-28T06:43:44.713Z,88.40
2018-03-28T06:46:12.105Z,90.03
2018-03-28T06:48:39.460Z,88.57
2018-03-28T06:51:06.863Z,79.87
2018-03-28T06:53:34.289Z,89.67
2018-03-28T06:56:01.624Z,88.43
2018-03-28T06:58:29.013Z,90.73
2018-03-28T07:00:56.378Z,95.87
2018-03-28T07:03:23.749Z,89.83
2018-03-28T07:05:51.142Z,89.50
2018-03-28T07:08:18.498Z,87.30
2018-03-28T07:10:45.909Z,87.33
2018-03-28T07:13:13.274Z,86.97
2018-03-28T07:15:40.625Z,91.33
2018-03-28T07:18:08.047Z,91.07
2018-03-28T07:20:35.401Z,95.73
2018-03-28T07:23:02.762Z,96.20
2018-03-28T07:25:30.161Z,96.13
2018-03-28T07:27:57.546Z,102.37
2018-03-28T07:30:24.914Z,91.60
2018-03-28T07:32:52.310Z,94.43
2018-03-28T07:35:19.675Z,100.30
2018-03-28T07:37:47.045Z,96.17
2018-03-28T07:40:14.457Z,104.40
2018-03-28T07:42:41.825Z,101.07
2018-03-28T07:45:09.189Z,98.00
2018-03-28T07:47:36.583Z,108.10
2018-03-28T07:50:03.983Z,113.80
2018-03-28T07:52:31.403Z,106.50
2018-03-28T07:54:58.766Z,106.87
2018-03-28T07:57:26.135Z,107.90
2018-03-28T07:59:53.551Z,93.40
2018-03-28T08:02:20.921Z,107.10
2018-03-28T08:04:48.290Z,109.70
2018-03-28T08:07:15.691Z,114.17
2018-03-28T08:09:43.134Z,111.40
2018-03-28T08:12:10.504Z,114.80
2018-03-28T08:14:37.894Z,104.90
2018-03-28T08:17:05.301Z,115.27
2018-03-28T08:19:32.669Z,109.90
2018-03-28T08:22:00.090Z,110.87
2018-03-28T08:24:27.468Z,103.80
2018-03-28T08:26:54.828Z,109.97
2018-03-28T08:29:22.237Z,115.63
2018-03-28T08:31:49.617Z,116.30
2018-03-28T08:34:16.982Z,114.73
2018-03-28T08:36:44.417Z,109.67
2018-03-28T08:39:11.822Z,115.10
2018-03-28T08:41:39.185Z,120.97
2018-03-28T08:44:06.582Z,117.47
2018-03-28T08:46:33.974Z,112.67
2018-03-28T08:49:01.386Z,128.30
2018-03-28T08:51:28.790Z,125.00
2018-03-28T08:53:56.163Z,122.70
2018-03-28T08:56:23.576Z,116.07
2018-03-28T08:58:50.980Z,126.80
2018-03-28T09:01:18.337Z,136.23
2018-03-28T09:03:45.729Z,120.60
2018-03-28T09:06:13.130Z,114.60
2018-03-28T09:08:40.582Z,117.83
2018-03-28T09:11:07.955Z,121.30
2018-03-28T09:13:35.365Z,115.93
2018-03-28T09:16:02.734Z,123.23
2018-03-28T09:18:30.099Z,110.53
2018-03-28T09:20:57.498Z,119.60
2018-03-28T09:23:24.860Z,112.40
2018-03-28T09:25:52.227Z,117.90
2018-03-28T09:28:19.624Z,112.37
2018-03-28T09:30:46.995Z,110.20
2018-03-28T09:33:14.442Z,113.50
2018-03-28T09:35:41.846Z,118.33
2018-03-28T09:38:09.209Z,107.90
2018-03-28T09:40:36.577Z,105.30
2018-03-28T09:43:03.962Z,110.10
2018-03-28T09:45:31.357Z,106.57
2018-03-28T09:47:58.779Z,101.73
2018-03-28T09:50:26.145Z,109.40
2018-03-28T09:52:53.510Z,114.10
2018-03-28T09:55:20.905Z,105.00
2018-03-28T09:57:48.324Z,121.27
2018-03-28T10:00:30.578Z,104.03
2018-03-28T10:03:03.672Z,106.67
2018-03-28T10:05:36.833Z,97.93
2018-03-28T10:08:04.201Z,101.97
2018-03-28T10:10:31.574Z,98.27
2018-03-28T10:12:58.981Z,119.53
2018-03-28T10:15:26.341Z,110.53
2018-03-28T10:17:53.713Z,102.97
2018-03-28T10:20:21.222Z,108.33
2018-03-28T10:22:48.590Z,102.47
2018-03-28T10:25:15.993Z,117.17
2018-03-28T10:27:43.359Z,117.47
2018-03-28T10:30:10.762Z,108.17
2018-03-28T10:32:39.069Z,108.63
2018-03-28T10:35:09.769Z,99.60
2018-03-28T10:37:37.133Z,96.60
2018-03-28T10:40:04.555Z,94.20
2018-03-28T10:42:31.908Z,96.97
2018-03-28T10:44:59.346Z,88.20
2018-03-28T10:47:26.753Z,96.93
2018-03-28T10:49:54.117Z,94.40
2018-03-28T10:52:21.469Z,96.90
2018-03-28T10:54:48.882Z,93.80
2018-03-28T10:57:16.238Z,91.63
2018-03-28T10:59:43.598Z,96.97
2018-03-28T11:02:11.005Z,95.80
2018-03-28T11:04:38.361Z,92.73
2018-03-28T11:07:05.728Z,105.23
2018-03-28T11:09:33.164Z,92.30
2018-03-28T11:12:00.535Z,106.30
2018-03-28T11:14:27.898Z,91.80
2018-03-28T11:16:55.321Z,106.90
2018-03-28T11:19:22.694Z,102.57
2018-03-28T11:21:50.049Z,87.63
2018-03-28T11:24:17.465Z,99.70
2018-03-28T11:26:44.845Z,107.13
2018-03-28T11:29:12.235Z,105.00
2018-03-28T11:31:39.648Z,105.77
2018-03-28T11:34:07.010Z,102.70
2018-03-28T11:36:34.394Z,109.17
2018-03-28T11:39:01.806Z,105.23
2018-03-28T11:41:29.186Z,104.83
2018-03-28T11:43:56.550Z,100.13
2018-03-28T11:46:23.949Z,105.67
2018-03-28T11:48:51.313Z,103.10
2018-03-28T11:51:18.717Z,91.97
2018-03-28T11:53:46.090Z,90.87
2018-03-28T11:56:13.458Z,101.07
2018-03-28T11:58:40.866Z,83.87
2018-03-28T12:01:08.546Z,94.10
2018-03-28T12:03:35.918Z,76.07
2018-03-28T12:06:03.305Z,89.80
2018-03-28T12:08:30.728Z,84.93
2018-03-28T12:10:58.142Z,84.77
2018-03-28T12:13:25.498Z,81.00
2018-03-28T12:15:52.881Z,79.23
2018-03-28T12:18:20.252Z,70.57
2018-03-28T12:20:47.702Z,77.93
2018-03-28T12:23:15.070Z,81.03
2018-03-28T12:25:42.425Z,76.53
2018-03-28T12:28:09.834Z,76.57
2018-03-28T12:30:37.206Z,74.50
2018-03-28T12:33:04.572Z,65.97
2018-03-28T12:35:31.981Z,73.80
2018-03-28T12:37:59.360Z,69.83
2018-03-28T12:40:26.712Z,71.33
2018-03-28T12:42:54.106Z,62.60
2018-03-28T12:45:21.523Z,69.03
2018-03-28T12:47:49.327Z,69.63
2018-03-28T12:50:16.741Z,62.37
2018-03-28T12:52:44.136Z,69.50
2018-03-28T12:55:11.563Z,66.17
2018-03-28T12:57:38.933Z,68.50
2018-03-28T13:00:06.311Z,61.73
2018-03-28T13:02:33.692Z,66.27
2018-03-28T13:05:01.098Z,65.50
2018-03-28T13:07:28.480Z,68.50
2018-03-28T13:09:55.877Z,64.53
2018-03-28T13:12:23.233Z,65.30
2018-03-28T13:14:50.609Z,74.50
2018-03-28T13:17:18.017Z,73.93
2018-03-28T13:19:45.374Z,73.60
2018-03-28T13:22:12.738Z,64.10
2018-03-28T13:24:40.134Z,68.30
2018-03-28T13:27:07.493Z,71.73
2018-03-28T13:29:34.853Z,63.53
2018-03-28T13:32:02.275Z,66.80
2018-03-28T13:34:29.639Z,65.60
2018-03-28T13:36:56.992Z,63.93
2018-03-28T13:39:24.392Z,62.73
2018-03-28T13:41:51.758Z,68.40
2018-03-28T13:44:19.108Z,66.13
2018-03-28T13:46:46.514Z,65.37
2018-03-28T13:49:13.910Z,65.77
2018-03-28T13:51:41.301Z,61.30
2018-03-28T13:54:08.705Z,56.63
2018-03-28T13:56:36.074Z,61.13
2018-03-28T13:59:03.589Z,56.30
2018-03-28T14:01:31.002Z,63.57
2018-03-28T14:03:58.360Z,60.53
2018-03-28T14:06:25.717Z,62.43
2018-03-28T14:08:53.093Z,67.03
2018-03-28T14:11:20.461Z,58.30
2018-03-28T14:13:47.858Z,60.97
2018-03-28T14:16:15.223Z,58.33
2018-03-28T14:18:42.575Z,62.70
2018-03-28T14:21:09.996Z,63.70
2018-03-28T14:23:37.402Z,64.30
2018-03-28T14:26:04.786Z,63.93
2018-03-28T14:28:32.198Z,63.67
2018-03-28T14:30:59.562Z,68.67
2018-03-28T14:33:26.918Z,64.07
2018-03-28T14:35:54.319Z,62.33
2018-03-28T14:38:21.697Z,61.30
2018-03-28T14:40:49.061Z,69.17
2018-03-28T14:43:16.470Z,60.50
2018-03-28T14:45:43.832Z,58.77
2018-03-28T14:48:11.184Z,66.13
2018-03-28T14:50:38.564Z,62.00
2018-03-28T14:53:05.957Z,62.40
2018-03-28T14:55:33.369Z,60.40
2018-03-28T14:58:00.755Z,53.67
2018-03-28T15:00:28.113Z,54.50
2018-03-28T15:02:55.501Z,57.43
2018-03-28T15:05:22.868Z,61.07
2018-03-28T15:07:50.221Z,59.80
2018-03-28T15:10:17.626Z,65.20
2018-03-28T15:12:44.995Z,59.83
2018-03-28T15:15:12.353Z,58.10
2018-03-28T15:17:39.778Z,58.50
2018-03-28T15:20:07.141Z,61.10
2018-03-28T15:22:34.502Z,55.23
2018-03-28T15:25:01.907Z,58.13
2018-03-28T15:27:29.275Z,64.40
2018-03-28T15:29:56.636Z,55.03
2018-03-28T15:32:24.029Z,56.93
2018-03-28T15:34:51.433Z,58.80
2018-03-28T15:37:18.826Z,59.10
2018-03-28T15:39:46.215Z,57.50
2018-03-28T15:42:13.590Z,62.70
2018-03-28T15:44:40.977Z,58.60
2018-03-28T15:47:08.346Z,61.77
2018-03-28T15:49:35.763Z,66.97
2018-03-28T15:52:03.130Z,60.20
2018-03-28T15:54:30.503Z,60.83
2018-03-28T15:56:57.918Z,66.07
2018-03-28T15:59:25.324Z,63.30
2018-03-28T16:01:52.698Z,67.37
2018-03-28T16:04:20.176Z,69.47
2018-03-28T16:06:47.552Z,67.50
2018-03-28T16:09:14.916Z,71.43
2018-03-28T16:11:42.340Z,62.90
2018-03-28T16:14:09.714Z,64.23
2018-03-28T16:16:37.101Z,68.97
2018-03-28T16:19:04.521Z,68.37
2018-03-28T16:21:31.886Z,72.17
2018-03-28T16:23:59.242Z,74.63
2018-03-28T16:26:26.639Z,70.57
2018-03-28T16:28:54.030Z,72.87
2018-03-28T16:31:21.438Z,73.37
2018-03-28T16:33:48.926Z,68.77
2018-03-28T16:36:16.277Z,70.67
2018-03-28T16:38:43.635Z,71.00
2018-03-28T16:41:11.094Z,73.93
2018-03-28T16:43:38.425Z,80.57
2018-03-28T16:46:05.787Z,73.87
2018-03-28T16:48:33.183Z,73.90
2018-03-28T16:51:00.537Z,84.03
2018-03-28T16:53:27.903Z,78.23
2018-03-28T16:55:55.285Z,74.00
2018-03-28T16:58:22.637Z,76.37
2018-03-28T17:00:50.038Z,74.73
2018-03-28T17:03:17.398Z,76.97
2018-03-28T17:05:44.761Z,72.30
2018-03-28T17:08:12.223Z,81.33
2018-03-28T17:10:39.570Z,77.60
2018-03-28T17:13:06.928Z,73.93
2018-03-28T17:15:34.300Z,72.43
2018-03-28T17:18:01.696Z,78.93
2018-03-28T17:20:29.054Z,78.77
2018-03-28T17:22:56.418Z,92.33
2018-03-28T17:25:23.822Z,74.50
2018-03-28T17:27:51.194Z,70.90
2018-03-28T17:30:18.557Z,79.03
2018-03-28T17:32:45.964Z,82.40
2018-03-28T17:35:13.325Z,93.17
2018-03-28T17:37:40.685Z,84.23
2018-03-28T17:40:08.098Z,81.07
2018-03-28T17:42:35.477Z,87.50
2018-03-28T17:45:02.888Z,82.53
2018-03-28T17:47:30.307Z,88.20
2018-03-28T17:49:57.661Z,86.77
2018-03-28T17:52:25.029Z,84.10
2018-03-28T17:54:52.994Z,88.23
2018-03-28T17:57:20.361Z,78.20
2018-03-28T17:59:47.730Z,93.90
2018-03-28T18:02:15.137Z,84.97
2018-03-28T18:04:42.510Z,87.43
2018-03-28T18:07:09.874Z,86.47
2018-03-28T18:09:37.273Z,87.63
2018-03-28T18:12:04.629Z,90.03
2018-03-28T18:14:31.985Z,92.77
2018-03-28T18:16:59.387Z,89.23
2018-03-28T18:19:26.758Z,90.70
2018-03-28T18:21:54.133Z,86.30
2018-03-28T18:24:21.525Z,92.80
2018-03-28T18:26:48.901Z,83.67
2018-03-28T18:29:16.354Z,93.30
2018-03-28T18:31:43.745Z,90.50
2018-03-28T18:34:11.102Z,96.60
2018-03-28T18:36:38.530Z,107.03
2018-03-28T18:39:05.894Z,98.00
2018-03-28T18:41:33.253Z,96.57
2018-03-28T18:44:00.663Z,88.10
2018-03-28T18:46:28.026Z,93.50
2018-03-28T18:48:55.381Z,94.93
2018-03-28T18:51:22.795Z,99.40
2018-03-28T18:53:50.171Z,90.10
2018-03-28T18:56:17.544Z,96.17
2018-03-28T18:58:44.987Z,93.97
2018-03-28T19:01:12.359Z,102.70
2018-03-28T19:03:39.727Z,102.47
2018-03-28T19:06:07.142Z,98.70
2018-03-28T19:08:34.506Z,96.33
2018-03-28T19:11:01.882Z,105.13
2018-03-28T19:13:29.298Z,100.47
2018-03-28T19:15:56.766Z,97.00
2018-03-28T19:18:24.643Z,96.00
2018-03-28T19:20:52.066Z,107.57
2018-03-28T19:23:19.430Z,102.10
2018-03-28T19:25:46.812Z,105.77
2018-03-28T19:28:14.235Z,109.67
2018-03-28T19:30:41.637Z,112.30
2018-03-28T19:33:09.016Z,109.47
2018-03-28T19:35:36.451Z,109.50
2018-03-28T19:38:03.856Z,114.23
2018-03-28T19:40:31.235Z,110.63
2018-03-28T19:42:58.646Z,119.53
2018-03-28T19:45:26.015Z,120.57
2018-03-28T19:47:53.415Z,114.63
2018-03-28T19:50:20.812Z,121.93
2018-03-28T19:52:48.195Z,123.93
2018-03-28T19:55:15.603Z,114.27
2018-03-28T19:57:42.974Z,122.37
2018-03-28T20:02:54.004Z,117.30
2018-03-28T20:05:21.433Z,108.53
2018-03-28T20:07:48.774Z,116.47
2018-03-28T20:10:16.191Z,130.10
2018-03-28T20:12:43.578Z,127.87
2018-03-28T20:15:10.959Z,129.77
2018-03-28T20:17:38.381Z,135.83
2018-03-28T20:20:05.754Z,127.60
2018-03-28T20:22:33.128Z,130.20
2018-03-28T20:25:00.534Z,128.30
2018-03-28T20:27:27.900Z,127.80
2018-03-28T20:29:55.303Z,123.20
2018-03-28T20:32:22.723Z,134.00
2018-03-28T20:34:50.110Z,135.07
2018-03-28T20:37:17.484Z,136.80
2018-03-28T20:39:44.877Z,142.77
2018-03-28T20:42:12.280Z,139.03
2018-03-28T20:44:39.645Z,134.60
2018-03-28T20:47:07.049Z,140.30
2018-03-28T20:49:34.426Z,138.30
2018-03-28T20:52:01.804Z,128.00
2018-03-28T20:54:29.201Z,139.13
2018-03-28T20:56:56.577Z,144.60
2018-03-28T20:59:23.947Z,135.13
2018-03-28T21:01:51.346Z,128.90
2018-03-28T21:04:18.707Z,134.73
2018-03-28T21:06:46.080Z,125.10
2018-03-28T21:09:13.470Z,136.03
2018-03-28T21:11:40.824Z,128.03
2018-03-28T21:14:08.189Z,129.77
2018-03-28T21:16:35.611Z,123.47
2018-03-28T21:19:02.974Z,132.90
2018-03-28T21:21:30.363Z,126.77
2018-03-28T21:23:57.762Z,132.23
2018-03-28T21:26:25.126Z,125.07
2018-03-28T21:28:52.485Z,133.30
2018-03-28T21:31:19.877Z,135.63
2018-03-28T21:33:47.263Z,141.67
2018-03-28T21:36:14.628Z,130.50
2018-03-28T21:38:42.126Z,123.23
2018-03-28T21:41:09.534Z,121.97
2018-03-28T21:43:36.916Z,126.63
2018-03-28T21:46:04.313Z,119.30
2018-03-28T21:48:31.676Z,108.40
2018-03-28T21:50:59.044Z,115.83
2018-03-28T21:53:26.609Z,123.07
2018-03-28T21:55:54.018Z,122.17
2018-03-28T21:58:21.397Z,118.60
2018-03-28T22:00:48.802Z,94.57
2018-03-28T22:03:16.166Z,102.80
2018-03-28T22:05:43.529Z,110.93
2018-03-28T22:08:10.953Z,111.90
2018-03-28T22:10:38.345Z,106.50
2018-03-28T22:13:05.717Z,102.00
2018-03-28T22:15:33.146Z,103.10
2018-03-28T22:18:00.509Z,92.00
2018-03-28T22:20:27.873Z,92.73
2018-03-28T22:22:55.265Z,97.30
2018-03-28T22:25:22.627Z,96.40
2018-03-28T22:27:50.029Z,90.13
2018-03-28T22:30:17.425Z,88.80
2018-03-28T22:32:44.805Z,89.13
2018-03-28T22:35:12.171Z,83.57
2018-03-28T22:37:39.587Z,88.57
2018-03-28T22:40:06.970Z,85.70
2018-03-28T22:42:34.349Z,99.37
2018-03-28T22:45:01.776Z,93.43
2018-03-28T22:47:29.207Z,88.30
2018-03-28T22:49:56.566Z,86.83
2018-03-28T22:52:23.960Z,90.93
2018-03-28T22:54:51.323Z,87.23
2018-03-28T22:57:18.685Z,86.93
2018-03-28T22:59:46.081Z,86.30
2018-03-28T23:02:13.439Z,80.93
2018-03-28T23:04:40.795Z,86.73
2018-03-28T23:07:08.178Z,89.40
2018-03-28T23:09:35.572Z,97.83
2018-03-28T23:12:02.935Z,87.23
2018-03-28T23:14:30.394Z,91.20
2018-03-28T23:16:57.824Z,95.80
2018-03-28T23:19:25.219Z,84.67
2018-03-28T23:21:52.610Z,97.57
2018-03-28T23:24:20.004Z,84.67
2018-03-28T23:26:47.377Z,82.73
2018-03-28T23:29:14.745Z,87.90
2018-03-28T23:31:42.163Z,81.57
2018-03-28T23:34:09.520Z,85.00
2018-03-28T23:36:36.929Z,85.70
2018-03-28T23:39:04.330Z,88.93
2018-03-28T23:41:31.730Z,76.60
2018-03-28T23:43:59.093Z,76.07
2018-03-28T23:46:26.542Z,78.60
2018-03-28T23:48:53.886Z,76.73
2018-03-28T23:51:21.243Z,82.13
2018-03-28T23:53:49.577Z,86.90
2018-03-28T23:56:16.934Z,84.27
2018-03-28T23:58:44.302Z,89.63
